sensor_id;sensor_type;location;lat;lon;timestamp;P1;durP1;ratioP1;P2;durP2;ratioP2
51527;SDS011;37612;51.768;21.590;2023-02-28T00:03:48;6.60;;;3.50;;
51527;SDS011;37612;51.768;21.590;2023-02-28T00:07:49;8.00;;;4.70;;
51527;SDS011;37612;51.768;21.590;2023-02-28T00:11:52;17.90;;;9.70;;
51527;SDS011;37612;51.768;21.590;2023-02-28T00:15:58;13.00;;;6.70;;
51527;SDS011;37612;51.768;21.590;2023-02-28T00:20:04;11.30;;;5.70;;
51527;SDS011;37612;51.768;21.590;2023-02-28T00:24:29;11.00;;;4.80;;
51527;SDS011;37612;51.768;21.590;2023-02-28T00:28:31;11.30;;;5.10;;
51527;SDS011;37612;51.768;21.590;2023-02-28T00:32:33;7.30;;;4.10;;
51527;SDS011;37612;51.768;21.590;2023-02-28T00:36:35;10.80;;;4.70;;
51527;SDS011;37612;51.768;21.590;2023-02-28T00:40:38;8.80;;;4.50;;
51527;SDS011;37612;51.768;21.590;2023-02-28T00:44:39;9.30;;;5.70;;
51527;SDS011;37612;51.768;21.590;2023-02-28T00:48:40;9.90;;;4.50;;
51527;SDS011;37612;51.768;21.590;2023-02-28T00:52:41;12.10;;;4.30;;
51527;SDS011;37612;51.768;21.590;2023-02-28T00:56:42;16.40;;;6.50;;
51527;SDS011;37612;51.768;21.590;2023-02-28T01:00:43;15.90;;;6.10;;
51527;SDS011;37612;51.768;21.590;2023-02-28T01:04:49;12.20;;;5.50;;
51527;SDS011;37612;51.768;21.590;2023-02-28T01:08:50;9.30;;;4.10;;
51527;SDS011;37612;51.768;21.590;2023-02-28T01:12:51;8.00;;;4.20;;
51527;SDS011;37612;51.768;21.590;2023-02-28T01:16:52;8.80;;;3.40;;
51527;SDS011;37612;51.768;21.590;2023-02-28T01:20:54;17.50;;;7.50;;
51527;SDS011;37612;51.768;21.590;2023-02-28T01:24:55;16.80;;;7.30;;
51527;SDS011;37612;51.768;21.590;2023-02-28T01:28:56;7.40;;;4.10;;
51527;SDS011;37612;51.768;21.590;2023-02-28T01:32:58;7.90;;;3.90;;
51527;SDS011;37612;51.768;21.590;2023-02-28T01:37:00;11.10;;;5.70;;
51527;SDS011;37612;51.768;21.590;2023-02-28T01:41:01;11.90;;;4.30;;
51527;SDS011;37612;51.768;21.590;2023-02-28T01:45:07;15.60;;;4.60;;
51527;SDS011;37612;51.768;21.590;2023-02-28T01:49:20;9.90;;;4.00;;
51527;SDS011;37612;51.768;21.590;2023-02-28T01:53:25;10.20;;;4.20;;
51527;SDS011;37612;51.768;21.590;2023-02-28T01:57:37;15.60;;;7.50;;
51527;SDS011;37612;51.768;21.590;2023-02-28T02:01:43;11.30;;;5.40;;
51527;SDS011;37612;51.768;21.590;2023-02-28T02:05:44;8.20;;;4.30;;
51527;SDS011;37612;51.768;21.590;2023-02-28T02:09:49;8.70;;;4.10;;
51527;SDS011;37612;51.768;21.590;2023-02-28T02:14:00;7.20;;;4.10;;
51527;SDS011;37612;51.768;21.590;2023-02-28T02:18:30;8.90;;;4.20;;
51527;SDS011;37612;51.768;21.590;2023-02-28T02:35:30;12.40;;;4.90;;
51527;SDS011;37612;51.768;21.590;2023-02-28T02:39:44;10.30;;;4.60;;
51527;SDS011;37612;51.768;21.590;2023-02-28T02:47:54;93.40;;;25.20;;
51527;SDS011;37612;51.768;21.590;2023-02-28T02:52:01;99.70;;;28.50;;
51527;SDS011;37612;51.768;21.590;2023-02-28T02:56:05;71.90;;;21.70;;
51527;SDS011;37612;51.768;21.590;2023-02-28T03:00:09;10.70;;;5.90;;
51527;SDS011;37612;51.768;21.590;2023-02-28T03:04:15;14.80;;;5.70;;
51527;SDS011;37612;51.768;21.590;2023-02-28T03:08:19;10.10;;;4.60;;
51527;SDS011;37612;51.768;21.590;2023-02-28T03:12:21;10.90;;;4.80;;
51527;SDS011;37612;51.768;21.590;2023-02-28T03:16:33;18.20;;;9.20;;
51527;SDS011;37612;51.768;21.590;2023-02-28T03:20:41;18.10;;;9.80;;
51527;SDS011;37612;51.768;21.590;2023-02-28T03:25:06;10.30;;;6.50;;
51527;SDS011;37612;51.768;21.590;2023-02-28T03:33:30;10.40;;;5.40;;
51527;SDS011;37612;51.768;21.590;2023-02-28T03:37:40;10.00;;;5.70;;
51527;SDS011;37612;51.768;21.590;2023-02-28T03:41:49;14.00;;;5.90;;
51527;SDS011;37612;51.768;21.590;2023-02-28T03:45:56;19.10;;;9.60;;
51527;SDS011;37612;51.768;21.590;2023-02-28T03:50:10;15.10;;;7.80;;
51527;SDS011;37612;51.768;21.590;2023-02-28T03:54:23;7.60;;;4.90;;
51527;SDS011;37612;51.768;21.590;2023-02-28T03:58:39;13.60;;;6.10;;
51527;SDS011;37612;51.768;21.590;2023-02-28T04:02:48;11.50;;;5.40;;
51527;SDS011;37612;51.768;21.590;2023-02-28T04:06:53;10.60;;;5.30;;
51527;SDS011;37612;51.768;21.590;2023-02-28T04:11:04;16.00;;;9.10;;
51527;SDS011;37612;51.768;21.590;2023-02-28T04:15:33;12.80;;;7.50;;
51527;SDS011;37612;51.768;21.590;2023-02-28T04:19:34;10.50;;;4.90;;
51527;SDS011;37612;51.768;21.590;2023-02-28T04:23:36;12.30;;;6.60;;
51527;SDS011;37612;51.768;21.590;2023-02-28T04:27:37;10.50;;;5.80;;
51527;SDS011;37612;51.768;21.590;2023-02-28T04:31:38;8.30;;;4.90;;
51527;SDS011;37612;51.768;21.590;2023-02-28T04:35:40;18.90;;;9.60;;
51527;SDS011;37612;51.768;21.590;2023-02-28T04:39:42;14.20;;;8.40;;
51527;SDS011;37612;51.768;21.590;2023-02-28T04:43:43;14.10;;;7.20;;
51527;SDS011;37612;51.768;21.590;2023-02-28T04:47:45;11.10;;;6.10;;
51527;SDS011;37612;51.768;21.590;2023-02-28T04:51:46;8.90;;;5.20;;
51527;SDS011;37612;51.768;21.590;2023-02-28T04:55:47;8.90;;;5.50;;
51527;SDS011;37612;51.768;21.590;2023-02-28T04:59:48;14.10;;;8.40;;
51527;SDS011;37612;51.768;21.590;2023-02-28T05:03:51;26.00;;;12.30;;
51527;SDS011;37612;51.768;21.590;2023-02-28T05:07:54;20.50;;;9.80;;
51527;SDS011;37612;51.768;21.590;2023-02-28T05:11:56;15.00;;;6.40;;
51527;SDS011;37612;51.768;21.590;2023-02-28T05:15:57;11.50;;;6.40;;
51527;SDS011;37612;51.768;21.590;2023-02-28T05:19:59;13.90;;;7.00;;
51527;SDS011;37612;51.768;21.590;2023-02-28T05:24:01;22.70;;;10.30;;
51527;SDS011;37612;51.768;21.590;2023-02-28T05:28:06;16.70;;;9.30;;
51527;SDS011;37612;51.768;21.590;2023-02-28T05:32:09;14.60;;;7.50;;
51527;SDS011;37612;51.768;21.590;2023-02-28T05:36:11;15.90;;;7.10;;
51527;SDS011;37612;51.768;21.590;2023-02-28T05:40:12;15.00;;;7.30;;
51527;SDS011;37612;51.768;21.590;2023-02-28T05:44:14;11.50;;;7.10;;
51527;SDS011;37612;51.768;21.590;2023-02-28T05:48:20;23.60;;;11.90;;
51527;SDS011;37612;51.768;21.590;2023-02-28T05:52:22;24.50;;;11.00;;
51527;SDS011;37612;51.768;21.590;2023-02-28T05:56:24;15.30;;;7.80;;
51527;SDS011;37612;51.768;21.590;2023-02-28T06:00:25;20.60;;;7.90;;
51527;SDS011;37612;51.768;21.590;2023-02-28T06:04:26;16.90;;;8.90;;
51527;SDS011;37612;51.768;21.590;2023-02-28T06:08:28;15.50;;;8.50;;
51527;SDS011;37612;51.768;21.590;2023-02-28T06:12:29;25.70;;;13.70;;
51527;SDS011;37612;51.768;21.590;2023-02-28T06:16:31;26.00;;;11.10;;
51527;SDS011;37612;51.768;21.590;2023-02-28T06:20:34;14.00;;;7.30;;
51527;SDS011;37612;51.768;21.590;2023-02-28T06:24:37;20.90;;;8.20;;
51527;SDS011;37612;51.768;21.590;2023-02-28T06:28:38;15.70;;;8.50;;
51527;SDS011;37612;51.768;21.590;2023-02-28T06:32:40;23.90;;;11.10;;
51527;SDS011;37612;51.768;21.590;2023-02-28T06:36:42;17.00;;;9.70;;
51527;SDS011;37612;51.768;21.590;2023-02-28T06:40:43;16.10;;;8.40;;
51527;SDS011;37612;51.768;21.590;2023-02-28T06:44:45;17.40;;;9.80;;
51527;SDS011;37612;51.768;21.590;2023-02-28T06:48:46;16.20;;;8.70;;
51527;SDS011;37612;51.768;21.590;2023-02-28T06:52:48;29.80;;;14.50;;
51527;SDS011;37612;51.768;21.590;2023-02-28T06:56:49;19.50;;;10.80;;
51527;SDS011;37612;51.768;21.590;2023-02-28T07:00:51;17.10;;;10.20;;
51527;SDS011;37612;51.768;21.590;2023-02-28T07:08:54;17.10;;;8.80;;
51527;SDS011;37612;51.768;21.590;2023-02-28T07:12:55;21.00;;;9.50;;
51527;SDS011;37612;51.768;21.590;2023-02-28T07:16:57;25.30;;;12.20;;
51527;SDS011;37612;51.768;21.590;2023-02-28T07:21:01;19.20;;;8.80;;
51527;SDS011;37612;51.768;21.590;2023-02-28T07:25:04;16.80;;;7.80;;
51527;SDS011;37612;51.768;21.590;2023-02-28T07:29:06;18.80;;;9.00;;
51527;SDS011;37612;51.768;21.590;2023-02-28T07:33:07;18.90;;;8.70;;
51527;SDS011;37612;51.768;21.590;2023-02-28T07:37:09;16.20;;;7.90;;
51527;SDS011;37612;51.768;21.590;2023-02-28T07:41:10;14.50;;;7.70;;
51527;SDS011;37612;51.768;21.590;2023-02-28T07:45:12;16.40;;;8.90;;
51527;SDS011;37612;51.768;21.590;2023-02-28T07:49:13;13.70;;;7.70;;
51527;SDS011;37612;51.768;21.590;2023-02-28T07:53:15;10.70;;;6.20;;
51527;SDS011;37612;51.768;21.590;2023-02-28T07:57:19;14.40;;;7.80;;
51527;SDS011;37612;51.768;21.590;2023-02-28T08:01:20;11.80;;;6.80;;
51527;SDS011;37612;51.768;21.590;2023-02-28T08:05:21;12.40;;;7.50;;
51527;SDS011;37612;51.768;21.590;2023-02-28T08:09:22;11.00;;;7.00;;
51527;SDS011;37612;51.768;21.590;2023-02-28T08:13:24;18.10;;;11.70;;
51527;SDS011;37612;51.768;21.590;2023-02-28T08:17:25;11.80;;;7.30;;
51527;SDS011;37612;51.768;21.590;2023-02-28T08:21:27;15.30;;;9.50;;
51527;SDS011;37612;51.768;21.590;2023-02-28T08:25:28;17.80;;;11.80;;
51527;SDS011;37612;51.768;21.590;2023-02-28T08:29:29;13.10;;;7.10;;
51527;SDS011;37612;51.768;21.590;2023-02-28T08:33:30;11.80;;;5.60;;
51527;SDS011;37612;51.768;21.590;2023-02-28T08:37:32;10.00;;;5.50;;
51527;SDS011;37612;51.768;21.590;2023-02-28T08:41:33;9.60;;;6.30;;
51527;SDS011;37612;51.768;21.590;2023-02-28T08:45:34;11.20;;;6.00;;
51527;SDS011;37612;51.768;21.590;2023-02-28T08:49:36;13.10;;;6.60;;
51527;SDS011;37612;51.768;21.590;2023-02-28T08:53:38;10.00;;;5.80;;
51527;SDS011;37612;51.768;21.590;2023-02-28T08:57:40;12.00;;;6.70;;
51527;SDS011;37612;51.768;21.590;2023-02-28T09:01:42;13.30;;;7.30;;
51527;SDS011;37612;51.768;21.590;2023-02-28T09:05:57;10.80;;;6.00;;
51527;SDS011;37612;51.768;21.590;2023-02-28T09:10:00;11.40;;;6.60;;
51527;SDS011;37612;51.768;21.590;2023-02-28T09:14:01;8.60;;;6.30;;
51527;SDS011;37612;51.768;21.590;2023-02-28T09:18:04;10.40;;;6.70;;
51527;SDS011;37612;51.768;21.590;2023-02-28T09:22:05;13.10;;;7.20;;
51527;SDS011;37612;51.768;21.590;2023-02-28T09:26:07;13.40;;;7.80;;
51527;SDS011;37612;51.768;21.590;2023-02-28T09:30:08;11.20;;;7.10;;
51527;SDS011;37612;51.768;21.590;2023-02-28T09:34:10;15.80;;;7.50;;
51527;SDS011;37612;51.768;21.590;2023-02-28T09:38:11;11.30;;;7.40;;
51527;SDS011;37612;51.768;21.590;2023-02-28T09:42:23;12.40;;;7.00;;
51527;SDS011;37612;51.768;21.590;2023-02-28T09:46:36;11.00;;;6.30;;
51527;SDS011;37612;51.768;21.590;2023-02-28T09:50:42;13.40;;;7.70;;
51527;SDS011;37612;51.768;21.590;2023-02-28T09:54:49;11.20;;;7.00;;
51527;SDS011;37612;51.768;21.590;2023-02-28T09:59:00;10.50;;;6.90;;
51527;SDS011;37612;51.768;21.590;2023-02-28T10:03:11;9.60;;;6.40;;
51527;SDS011;37612;51.768;21.590;2023-02-28T10:08:03;13.20;;;7.50;;
51527;SDS011;37612;51.768;21.590;2023-02-28T10:11:53;10.10;;;6.30;;
51527;SDS011;37612;51.768;21.590;2023-02-28T10:16:14;10.90;;;6.70;;
51527;SDS011;37612;51.768;21.590;2023-02-28T10:20:22;11.30;;;6.70;;
51527;SDS011;37612;51.768;21.590;2023-02-28T10:24:45;11.80;;;6.10;;
51527;SDS011;37612;51.768;21.590;2023-02-28T10:28:49;9.90;;;5.80;;
51527;SDS011;37612;51.768;21.590;2023-02-28T10:32:53;10.10;;;6.30;;
51527;SDS011;37612;51.768;21.590;2023-02-28T10:36:55;10.20;;;6.90;;
51527;SDS011;37612;51.768;21.590;2023-02-28T10:41:07;10.60;;;6.30;;
51527;SDS011;37612;51.768;21.590;2023-02-28T10:45:15;9.70;;;5.90;;
51527;SDS011;37612;51.768;21.590;2023-02-28T10:49:25;11.80;;;7.40;;
51527;SDS011;37612;51.768;21.590;2023-02-28T10:53:37;9.90;;;5.60;;
51527;SDS011;37612;51.768;21.590;2023-02-28T10:57:44;10.40;;;6.30;;
51527;SDS011;37612;51.768;21.590;2023-02-28T11:01:46;11.40;;;6.80;;
51527;SDS011;37612;51.768;21.590;2023-02-28T11:05:51;10.40;;;6.80;;
51527;SDS011;37612;51.768;21.590;2023-02-28T11:09:52;13.60;;;7.30;;
51527;SDS011;37612;51.768;21.590;2023-02-28T11:13:57;13.20;;;6.60;;
51527;SDS011;37612;51.768;21.590;2023-02-28T11:22:20;11.30;;;6.80;;
51527;SDS011;37612;51.768;21.590;2023-02-28T11:26:36;12.90;;;7.40;;
51527;SDS011;37612;51.768;21.590;2023-02-28T11:30:46;17.40;;;8.50;;
51527;SDS011;37612;51.768;21.590;2023-02-28T11:35:17;16.30;;;9.60;;
51527;SDS011;37612;51.768;21.590;2023-02-28T11:39:26;12.80;;;6.90;;
51527;SDS011;37612;51.768;21.590;2023-02-28T11:52:26;11.90;;;7.20;;
51527;SDS011;37612;51.768;21.590;2023-02-28T11:56:48;15.20;;;7.20;;
51527;SDS011;37612;51.768;21.590;2023-02-28T12:01:23;10.60;;;6.60;;
51527;SDS011;37612;51.768;21.590;2023-02-28T12:05:44;11.50;;;6.70;;
51527;SDS011;37612;51.768;21.590;2023-02-28T12:10:04;11.60;;;7.00;;
51527;SDS011;37612;51.768;21.590;2023-02-28T12:27:01;12.00;;;8.00;;
51527;SDS011;37612;51.768;21.590;2023-02-28T12:31:11;12.10;;;7.00;;
51527;SDS011;37612;51.768;21.590;2023-02-28T12:40:07;12.60;;;7.80;;
51527;SDS011;37612;51.768;21.590;2023-02-28T12:44:28;14.00;;;7.90;;
51527;SDS011;37612;51.768;21.590;2023-02-28T12:48:45;10.50;;;6.70;;
51527;SDS011;37612;51.768;21.590;2023-02-28T12:53:02;9.90;;;6.80;;
51527;SDS011;37612;51.768;21.590;2023-02-28T12:57:19;8.70;;;6.60;;
51527;SDS011;37612;51.768;21.590;2023-02-28T13:10:05;32.30;;;18.20;;
51527;SDS011;37612;51.768;21.590;2023-02-28T13:14:30;33.30;;;15.60;;
51527;SDS011;37612;51.768;21.590;2023-02-28T13:18:32;22.90;;;11.40;;
51527;SDS011;37612;51.768;21.590;2023-02-28T13:22:39;16.20;;;8.40;;
51527;SDS011;37612;51.768;21.590;2023-02-28T13:27:32;13.50;;;7.40;;
51527;SDS011;37612;51.768;21.590;2023-02-28T13:31:08;11.30;;;6.80;;
51527;SDS011;37612;51.768;21.590;2023-02-28T13:52:19;12.70;;;7.10;;
51527;SDS011;37612;51.768;21.590;2023-02-28T13:56:27;10.40;;;6.90;;
51527;SDS011;37612;51.768;21.590;2023-02-28T14:09:30;12.60;;;6.90;;
51527;SDS011;37612;51.768;21.590;2023-02-28T14:13:42;11.40;;;7.40;;
51527;SDS011;37612;51.768;21.590;2023-02-28T14:17:45;13.50;;;6.80;;
51527;SDS011;37612;51.768;21.590;2023-02-28T14:26:33;11.90;;;6.60;;
51527;SDS011;37612;51.768;21.590;2023-02-28T14:39:27;13.60;;;7.50;;
51527;SDS011;37612;51.768;21.590;2023-02-28T14:43:31;21.20;;;10.90;;
51527;SDS011;37612;51.768;21.590;2023-02-28T14:47:33;15.60;;;8.60;;
51527;SDS011;37612;51.768;21.590;2023-02-28T14:51:36;16.00;;;9.80;;
51527;SDS011;37612;51.768;21.590;2023-02-28T14:55:43;10.90;;;7.20;;
51527;SDS011;37612;51.768;21.590;2023-02-28T14:59:46;15.20;;;8.60;;
51527;SDS011;37612;51.768;21.590;2023-02-28T15:03:47;13.20;;;6.70;;
51527;SDS011;37612;51.768;21.590;2023-02-28T15:08:01;14.40;;;8.20;;
51527;SDS011;37612;51.768;21.590;2023-02-28T15:12:15;15.10;;;8.50;;
51527;SDS011;37612;51.768;21.590;2023-02-28T15:16:20;12.30;;;7.10;;
51527;SDS011;37612;51.768;21.590;2023-02-28T15:20:34;14.10;;;8.10;;
51527;SDS011;37612;51.768;21.590;2023-02-28T15:24:41;14.50;;;9.80;;
51527;SDS011;37612;51.768;21.590;2023-02-28T15:28:46;11.60;;;7.50;;
51527;SDS011;37612;51.768;21.590;2023-02-28T15:33:04;11.50;;;6.90;;
51527;SDS011;37612;51.768;21.590;2023-02-28T15:41:36;14.10;;;7.60;;
51527;SDS011;37612;51.768;21.590;2023-02-28T15:45:41;15.50;;;9.60;;
51527;SDS011;37612;51.768;21.590;2023-02-28T15:53:57;16.40;;;8.70;;
51527;SDS011;37612;51.768;21.590;2023-02-28T15:58:01;12.20;;;7.80;;
51527;SDS011;37612;51.768;21.590;2023-02-28T16:10:45;11.70;;;7.80;;
51527;SDS011;37612;51.768;21.590;2023-02-28T16:14:47;15.40;;;7.60;;
51527;SDS011;37612;51.768;21.590;2023-02-28T16:18:53;16.60;;;8.20;;
51527;SDS011;37612;51.768;21.590;2023-02-28T16:22:55;13.30;;;7.20;;
51527;SDS011;37612;51.768;21.590;2023-02-28T16:26:57;15.30;;;8.10;;
51527;SDS011;37612;51.768;21.590;2023-02-28T16:30:59;12.00;;;6.90;;
51527;SDS011;37612;51.768;21.590;2023-02-28T16:35:05;19.20;;;9.20;;
51527;SDS011;37612;51.768;21.590;2023-02-28T16:39:10;14.90;;;7.60;;
51527;SDS011;37612;51.768;21.590;2023-02-28T16:43:22;11.40;;;7.20;;
51527;SDS011;37612;51.768;21.590;2023-02-28T16:51:27;13.00;;;5.90;;
51527;SDS011;37612;51.768;21.590;2023-02-28T16:55:28;15.90;;;7.50;;
51527;SDS011;37612;51.768;21.590;2023-02-28T16:59:29;16.80;;;9.20;;
51527;SDS011;37612;51.768;21.590;2023-02-28T17:03:31;18.20;;;9.10;;
51527;SDS011;37612;51.768;21.590;2023-02-28T17:07:32;14.50;;;7.90;;
51527;SDS011;37612;51.768;21.590;2023-02-28T17:11:34;17.50;;;7.90;;
51527;SDS011;37612;51.768;21.590;2023-02-28T17:15:35;21.20;;;8.90;;
51527;SDS011;37612;51.768;21.590;2023-02-28T17:19:38;23.30;;;11.10;;
51527;SDS011;37612;51.768;21.590;2023-02-28T17:23:43;24.20;;;11.30;;
51527;SDS011;37612;51.768;21.590;2023-02-28T17:27:45;32.10;;;13.80;;
51527;SDS011;37612;51.768;21.590;2023-02-28T17:31:47;32.30;;;15.00;;
51527;SDS011;37612;51.768;21.590;2023-02-28T17:35:48;40.70;;;17.10;;
51527;SDS011;37612;51.768;21.590;2023-02-28T17:39:50;61.80;;;24.80;;
51527;SDS011;37612;51.768;21.590;2023-02-28T17:43:51;74.40;;;30.90;;
51527;SDS011;37612;51.768;21.590;2023-02-28T17:47:53;61.10;;;26.00;;
51527;SDS011;37612;51.768;21.590;2023-02-28T17:51:54;65.10;;;28.80;;
51527;SDS011;37612;51.768;21.590;2023-02-28T17:55:55;59.40;;;24.70;;
51527;SDS011;37612;51.768;21.590;2023-02-28T17:59:56;65.60;;;26.90;;
51527;SDS011;37612;51.768;21.590;2023-02-28T18:03:57;59.60;;;27.20;;
51527;SDS011;37612;51.768;21.590;2023-02-28T18:07:59;110.10;;;37.30;;
51527;SDS011;37612;51.768;21.590;2023-02-28T18:12:01;142.90;;;43.90;;
51527;SDS011;37612;51.768;21.590;2023-02-28T18:16:02;87.10;;;32.80;;
51527;SDS011;37612;51.768;21.590;2023-02-28T18:20:04;56.60;;;24.00;;
51527;SDS011;37612;51.768;21.590;2023-02-28T18:24:06;59.40;;;23.60;;
51527;SDS011;37612;51.768;21.590;2023-02-28T18:28:08;61.40;;;27.40;;
51527;SDS011;37612;51.768;21.590;2023-02-28T18:32:10;87.40;;;37.80;;
51527;SDS011;37612;51.768;21.590;2023-02-28T18:36:11;110.20;;;43.60;;
51527;SDS011;37612;51.768;21.590;2023-02-28T18:40:12;91.50;;;38.80;;
51527;SDS011;37612;51.768;21.590;2023-02-28T18:48:17;69.30;;;30.90;;
51527;SDS011;37612;51.768;21.590;2023-02-28T18:52:21;91.80;;;36.60;;
51527;SDS011;37612;51.768;21.590;2023-02-28T18:56:23;117.50;;;46.10;;
51527;SDS011;37612;51.768;21.590;2023-02-28T19:00:26;95.20;;;40.60;;
51527;SDS011;37612;51.768;21.590;2023-02-28T19:04:27;126.10;;;50.30;;
51527;SDS011;37612;51.768;21.590;2023-02-28T19:08:28;190.60;;;73.50;;
51527;SDS011;37612;51.768;21.590;2023-02-28T19:12:32;148.60;;;53.10;;
51527;SDS011;37612;51.768;21.590;2023-02-28T19:16:35;156.00;;;58.80;;
51527;SDS011;37612;51.768;21.590;2023-02-28T19:20:36;135.80;;;49.90;;
51527;SDS011;37612;51.768;21.590;2023-02-28T19:24:37;156.00;;;60.50;;
51527;SDS011;37612;51.768;21.590;2023-02-28T19:28:39;135.10;;;54.60;;
51527;SDS011;37612;51.768;21.590;2023-02-28T19:32:41;113.40;;;48.70;;
51527;SDS011;37612;51.768;21.590;2023-02-28T19:36:43;96.60;;;36.10;;
51527;SDS011;37612;51.768;21.590;2023-02-28T19:40:45;72.50;;;31.50;;
51527;SDS011;37612;51.768;21.590;2023-02-28T19:44:46;70.90;;;29.10;;
51527;SDS011;37612;51.768;21.590;2023-02-28T19:48:47;64.80;;;27.70;;
51527;SDS011;37612;51.768;21.590;2023-02-28T19:52:49;68.00;;;26.50;;
51527;SDS011;37612;51.768;21.590;2023-02-28T19:56:52;63.60;;;27.70;;
51527;SDS011;37612;51.768;21.590;2023-02-28T20:01:05;85.10;;;37.00;;
51527;SDS011;37612;51.768;21.590;2023-02-28T20:05:09;126.30;;;50.90;;
51527;SDS011;37612;51.768;21.590;2023-02-28T20:09:10;111.70;;;46.30;;
51527;SDS011;37612;51.768;21.590;2023-02-28T20:13:11;97.00;;;40.70;;
51527;SDS011;37612;51.768;21.590;2023-02-28T20:17:12;73.60;;;32.40;;
51527;SDS011;37612;51.768;21.590;2023-02-28T20:21:13;96.60;;;37.20;;
51527;SDS011;37612;51.768;21.590;2023-02-28T20:25:16;88.60;;;36.80;;
51527;SDS011;37612;51.768;21.590;2023-02-28T20:29:18;98.90;;;42.60;;
51527;SDS011;37612;51.768;21.590;2023-02-28T20:33:19;81.10;;;35.60;;
51527;SDS011;37612;51.768;21.590;2023-02-28T20:37:20;123.10;;;46.50;;
51527;SDS011;37612;51.768;21.590;2023-02-28T20:41:21;98.00;;;41.10;;
51527;SDS011;37612;51.768;21.590;2023-02-28T20:45:23;102.00;;;42.30;;
51527;SDS011;37612;51.768;21.590;2023-02-28T20:49:25;93.70;;;39.60;;
51527;SDS011;37612;51.768;21.590;2023-02-28T20:53:27;97.10;;;38.50;;
51527;SDS011;37612;51.768;21.590;2023-02-28T20:57:28;96.90;;;41.60;;
51527;SDS011;37612;51.768;21.590;2023-02-28T21:01:31;93.60;;;38.70;;
51527;SDS011;37612;51.768;21.590;2023-02-28T21:05:32;77.50;;;34.80;;
51527;SDS011;37612;51.768;21.590;2023-02-28T21:09:35;80.80;;;34.30;;
51527;SDS011;37612;51.768;21.590;2023-02-28T21:13:36;87.00;;;34.90;;
51527;SDS011;37612;51.768;21.590;2023-02-28T21:17:38;71.40;;;31.70;;
51527;SDS011;37612;51.768;21.590;2023-02-28T21:21:40;94.90;;;38.80;;
51527;SDS011;37612;51.768;21.590;2023-02-28T21:25:44;82.00;;;35.20;;
51527;SDS011;37612;51.768;21.590;2023-02-28T21:29:45;82.80;;;34.60;;
51527;SDS011;37612;51.768;21.590;2023-02-28T21:33:47;80.70;;;32.50;;
51527;SDS011;37612;51.768;21.590;2023-02-28T21:37:48;81.80;;;32.60;;
51527;SDS011;37612;51.768;21.590;2023-02-28T21:41:50;85.40;;;35.30;;
51527;SDS011;37612;51.768;21.590;2023-02-28T21:45:58;90.90;;;38.40;;
51527;SDS011;37612;51.768;21.590;2023-02-28T21:50:00;77.30;;;34.50;;
51527;SDS011;37612;51.768;21.590;2023-02-28T21:54:04;71.80;;;32.70;;
51527;SDS011;37612;51.768;21.590;2023-02-28T21:58:06;75.10;;;31.10;;
51527;SDS011;37612;51.768;21.590;2023-02-28T22:02:08;69.00;;;29.80;;
51527;SDS011;37612;51.768;21.590;2023-02-28T22:06:14;82.70;;;34.90;;
51527;SDS011;37612;51.768;21.590;2023-02-28T22:10:20;85.90;;;38.30;;
51527;SDS011;37612;51.768;21.590;2023-02-28T22:14:22;89.40;;;38.40;;
51527;SDS011;37612;51.768;21.590;2023-02-28T22:18:23;79.30;;;36.40;;
51527;SDS011;37612;51.768;21.590;2023-02-28T22:22:25;86.50;;;37.70;;
51527;SDS011;37612;51.768;21.590;2023-02-28T22:26:26;86.90;;;36.40;;
51527;SDS011;37612;51.768;21.590;2023-02-28T22:30:27;95.30;;;39.90;;
51527;SDS011;37612;51.768;21.590;2023-02-28T22:34:28;93.00;;;37.70;;
51527;SDS011;37612;51.768;21.590;2023-02-28T22:38:29;78.50;;;34.80;;
51527;SDS011;37612;51.768;21.590;2023-02-28T22:42:35;86.60;;;35.30;;
51527;SDS011;37612;51.768;21.590;2023-02-28T22:46:36;83.80;;;34.10;;
51527;SDS011;37612;51.768;21.590;2023-02-28T22:50:38;79.80;;;32.50;;
51527;SDS011;37612;51.768;21.590;2023-02-28T22:54:39;94.10;;;37.80;;
51527;SDS011;37612;51.768;21.590;2023-02-28T22:58:40;97.60;;;38.90;;
51527;SDS011;37612;51.768;21.590;2023-02-28T23:02:42;84.70;;;36.30;;
51527;SDS011;37612;51.768;21.590;2023-02-28T23:10:45;78.80;;;31.90;;
51527;SDS011;37612;51.768;21.590;2023-02-28T23:14:50;79.90;;;31.90;;
51527;SDS011;37612;51.768;21.590;2023-02-28T23:18:53;86.40;;;36.40;;
51527;SDS011;37612;51.768;21.590;2023-02-28T23:22:56;97.80;;;39.50;;
51527;SDS011;37612;51.768;21.590;2023-02-28T23:26:58;84.00;;;35.50;;
51527;SDS011;37612;51.768;21.590;2023-02-28T23:31:01;74.30;;;33.80;;
51527;SDS011;37612;51.768;21.590;2023-02-28T23:35:07;74.20;;;31.80;;
51527;SDS011;37612;51.768;21.590;2023-02-28T23:39:09;78.00;;;30.50;;
51527;SDS011;37612;51.768;21.590;2023-02-28T23:43:10;111.90;;;43.70;;
51527;SDS011;37612;51.768;21.590;2023-02-28T23:47:12;89.10;;;40.20;;
51527;SDS011;37612;51.768;21.590;2023-02-28T23:51:15;71.00;;;33.50;;
51527;SDS011;37612;51.768;21.590;2023-02-28T23:55:20;85.20;;;36.30;;
51527;SDS011;37612;51.768;21.590;2023-02-28T23:59:23;76.80;;;33.30;;
